createdAt,value
2019-03-27T00:00:37.563Z,9.02
2019-03-27T00:02:14.143Z,9.04
2019-03-27T00:03:48.459Z,9.05
2019-03-27T00:05:22.793Z,9.07
2019-03-27T00:06:57.086Z,9.09
2019-03-27T00:08:31.707Z,9.07
2019-03-27T00:10:09.161Z,9.08
2019-03-27T00:11:43.375Z,9.07
2019-03-27T00:13:17.895Z,9.16
2019-03-27T00:14:52.409Z,9.24
2019-03-27T00:16:26.862Z,9.30
2019-03-27T00:18:01.194Z,9.37
2019-03-27T00:19:35.445Z,9.44
2019-03-27T00:21:10.373Z,9.49
2019-03-27T00:22:44.644Z,9.53
2019-03-27T00:24:18.969Z,9.55
2019-03-27T00:25:53.247Z,9.58
2019-03-27T00:27:27.870Z,9.61
2019-03-27T00:29:02.182Z,9.62
2019-03-27T00:30:36.517Z,9.65
2019-03-27T00:32:10.804Z,9.67
2019-03-27T00:33:45.578Z,9.68
2019-03-27T00:35:19.805Z,9.71
2019-03-27T00:36:54.131Z,9.72
2019-03-27T00:38:28.458Z,9.72
2019-03-27T00:40:03.125Z,9.75
2019-03-27T00:41:37.411Z,9.76
2019-03-27T00:43:11.750Z,9.77
2019-03-27T00:44:46.376Z,9.76
2019-03-27T00:46:21.036Z,9.77
2019-03-27T00:47:55.270Z,9.77
2019-03-27T00:49:29.524Z,9.79
2019-03-27T00:51:03.771Z,9.80
2019-03-27T00:52:38.442Z,9.82
2019-03-27T00:54:12.665Z,9.82
2019-03-27T00:55:47.007Z,9.82
2019-03-27T00:57:21.250Z,9.80
2019-03-27T00:58:55.935Z,9.78
2019-03-27T01:00:48.500Z,9.74
2019-03-27T01:02:22.779Z,9.74
2019-03-27T01:03:57.733Z,9.75
2019-03-27T01:05:32.078Z,9.76
2019-03-27T01:07:06.391Z,9.76
2019-03-27T01:08:40.643Z,9.76
2019-03-27T01:10:15.230Z,9.75
2019-03-27T01:11:49.461Z,9.74
2019-03-27T01:13:23.698Z,9.73
2019-03-27T01:14:58.054Z,9.74
2019-03-27T01:16:32.768Z,9.74
2019-03-27T01:18:07.077Z,9.73
2019-03-27T01:19:41.303Z,9.72
2019-03-27T01:21:15.677Z,9.74
2019-03-27T01:22:50.328Z,9.67
2019-03-27T01:24:24.661Z,9.64
2019-03-27T01:25:58.973Z,9.62
2019-03-27T01:27:35.607Z,9.62
2019-03-27T01:29:09.385Z,9.60
2019-03-27T01:30:43.677Z,9.61
2019-03-27T01:32:17.936Z,9.61
2019-03-27T01:33:52.205Z,9.58
2019-03-27T01:35:26.703Z,9.56
2019-03-27T01:37:01.019Z,9.56
2019-03-27T01:38:35.325Z,9.52
2019-03-27T01:40:10.803Z,9.53
2019-03-27T01:41:45.355Z,9.53
2019-03-27T01:43:19.677Z,9.53
2019-03-27T01:44:53.929Z,9.54
2019-03-27T01:46:28.275Z,9.54
2019-03-27T01:48:02.993Z,9.56
2019-03-27T01:49:37.213Z,9.56
2019-03-27T01:51:11.574Z,9.54
2019-03-27T01:52:45.872Z,9.55
2019-03-27T01:54:20.415Z,9.54
2019-03-27T01:55:54.729Z,9.55
2019-03-27T01:57:29.066Z,9.53
2019-03-27T01:59:03.328Z,9.47
2019-03-27T02:00:37.885Z,9.49
2019-03-27T02:02:12.514Z,9.50
2019-03-27T02:03:46.943Z,9.50
2019-03-27T02:05:21.274Z,9.50
2019-03-27T02:06:55.763Z,9.51
2019-03-27T02:08:30.094Z,9.51
2019-03-27T02:10:06.445Z,9.49
2019-03-27T02:11:40.722Z,9.48
2019-03-27T02:13:15.649Z,9.49
2019-03-27T02:14:49.935Z,9.51
2019-03-27T02:16:24.262Z,9.51
2019-03-27T02:17:58.995Z,9.52
2019-03-27T02:19:33.584Z,9.52
2019-03-27T02:21:07.816Z,9.54
2019-03-27T02:22:42.111Z,9.53
2019-03-27T02:24:16.423Z,9.54
2019-03-27T02:25:51.866Z,9.55
2019-03-27T02:27:26.180Z,9.56
2019-03-27T02:29:00.459Z,9.57
2019-03-27T02:30:34.742Z,9.57
2019-03-27T02:32:09.424Z,9.58
2019-03-27T02:33:44.020Z,9.58
2019-03-27T02:35:18.257Z,9.58
2019-03-27T02:36:52.636Z,9.13
2019-03-27T02:38:27.161Z,9.55
2019-03-27T02:40:01.478Z,9.56
2019-03-27T02:41:35.776Z,9.56
2019-03-27T02:43:10.062Z,9.56
2019-03-27T02:44:44.723Z,9.57
2019-03-27T02:46:24.993Z,9.56
2019-03-27T02:47:56.422Z,9.56
2019-03-27T02:49:31.344Z,9.54
2019-03-27T02:51:07.544Z,9.54
2019-03-27T02:52:41.804Z,9.53
2019-03-27T02:54:16.077Z,9.52
2019-03-27T02:55:51.951Z,9.51
2019-03-27T02:57:26.579Z,9.50
2019-03-27T02:59:00.864Z,9.51
2019-03-27T03:00:36.290Z,9.52
2019-03-27T03:02:10.564Z,9.52
2019-03-27T03:03:45.256Z,9.52
2019-03-27T03:05:20.000Z,9.53
2019-03-27T03:06:54.230Z,9.55
2019-03-27T03:08:28.552Z,9.55
2019-03-27T03:10:03.233Z,9.55
2019-03-27T03:11:37.508Z,9.54
2019-03-27T03:13:11.797Z,9.54
2019-03-27T03:14:46.121Z,9.54
2019-03-27T03:16:20.682Z,9.53
2019-03-27T03:17:55.013Z,9.52
2019-03-27T03:19:29.317Z,9.54
2019-03-27T03:21:03.955Z,9.54
2019-03-27T03:22:38.530Z,9.57
2019-03-27T03:24:12.777Z,9.58
2019-03-27T03:25:47.062Z,9.58
2019-03-27T03:27:21.426Z,9.55
2019-03-27T03:28:56.083Z,9.54
2019-03-27T03:30:30.681Z,9.55
2019-03-27T03:32:04.970Z,9.56
2019-03-27T03:33:39.248Z,9.56
2019-03-27T03:35:13.792Z,9.56
2019-03-27T03:36:48.173Z,9.55
2019-03-27T03:38:22.406Z,9.53
2019-03-27T03:39:56.721Z,9.54
2019-03-27T03:41:31.277Z,9.55
2019-03-27T03:43:05.691Z,9.55
2019-03-27T03:44:39.920Z,9.55
2019-03-27T03:46:14.196Z,9.54
2019-03-27T03:47:48.734Z,9.55
2019-03-27T03:49:23.078Z,9.54
2019-03-27T03:51:00.374Z,9.54
2019-03-27T03:52:34.610Z,9.53
2019-03-27T03:54:09.365Z,9.53
2019-03-27T03:55:43.882Z,9.53
2019-03-27T03:57:19.711Z,9.51
2019-03-27T03:58:56.562Z,9.50
2019-03-27T04:00:32.751Z,9.50
2019-03-27T04:02:07.025Z,9.50
2019-03-27T04:03:42.831Z,9.47
2019-03-27T04:05:20.080Z,9.49
2019-03-27T04:06:54.707Z,9.48
2019-03-27T04:08:29.395Z,9.48
2019-03-27T04:10:03.719Z,9.49
2019-03-27T04:11:37.992Z,9.49
2019-03-27T04:13:13.902Z,9.51
2019-03-27T04:14:48.131Z,9.49
2019-03-27T04:16:22.362Z,9.48
2019-03-27T04:17:56.742Z,9.46
2019-03-27T04:19:31.241Z,9.47
2019-03-27T04:21:05.546Z,9.49
2019-03-27T04:22:39.835Z,9.50
2019-03-27T04:24:14.306Z,9.49
2019-03-27T04:26:08.049Z,9.48
2019-03-27T04:27:24.583Z,9.48
2019-03-27T04:28:59.849Z,9.45
2019-03-27T04:30:34.117Z,9.45
2019-03-27T04:32:08.581Z,9.46
2019-03-27T04:33:42.889Z,9.46
2019-03-27T04:35:17.112Z,9.44
2019-03-27T04:36:51.358Z,9.45
2019-03-27T04:38:25.931Z,9.46
2019-03-27T04:40:00.385Z,9.49
2019-03-27T04:41:34.709Z,9.50
2019-03-27T04:43:09.052Z,9.48
2019-03-27T04:44:43.352Z,9.49
2019-03-27T04:46:17.581Z,9.50
2019-03-27T04:47:51.799Z,9.50
2019-03-27T04:49:26.079Z,9.49
2019-03-27T04:51:00.535Z,9.50
2019-03-27T04:52:34.833Z,9.52
2019-03-27T04:54:09.041Z,9.53
2019-03-27T04:55:43.315Z,9.55
2019-03-27T04:57:17.997Z,9.57
2019-03-27T04:58:52.212Z,9.59
2019-03-27T05:00:26.565Z,9.60
2019-03-27T05:02:00.885Z,9.60
2019-03-27T05:03:35.323Z,9.59
2019-03-27T05:05:10.521Z,9.61
2019-03-27T05:06:44.813Z,9.62
2019-03-27T05:08:19.104Z,9.63
2019-03-27T05:09:53.676Z,9.61
2019-03-27T05:11:27.949Z,9.63
2019-03-27T05:13:02.225Z,9.65
2019-03-27T05:14:36.562Z,9.68
2019-03-27T05:16:10.993Z,9.68
2019-03-27T05:17:46.565Z,9.68
2019-03-27T05:19:21.108Z,9.66
2019-03-27T05:20:55.352Z,9.65
2019-03-27T05:22:29.913Z,9.64
2019-03-27T05:24:04.217Z,9.66
2019-03-27T05:25:38.510Z,9.70
2019-03-27T05:27:12.862Z,9.71
2019-03-27T05:28:47.441Z,9.69
2019-03-27T05:30:29.002Z,9.75
2019-03-27T05:32:03.279Z,9.76
2019-03-27T05:33:37.567Z,9.80
2019-03-27T05:35:12.016Z,9.85
2019-03-27T05:36:46.304Z,9.90
2019-03-27T05:38:20.584Z,9.92
2019-03-27T05:39:54.931Z,9.95
2019-03-27T05:41:29.433Z,9.98
2019-03-27T05:43:03.731Z,9.97
2019-03-27T05:44:37.961Z,10.00
2019-03-27T05:46:12.293Z,9.98
2019-03-27T05:47:58.912Z,9.96
2019-03-27T05:49:22.674Z,9.96
2019-03-27T05:50:56.977Z,10.05
2019-03-27T05:52:31.253Z,10.18
2019-03-27T05:54:05.671Z,10.36
2019-03-27T05:55:40.052Z,10.51
2019-03-27T05:57:14.288Z,10.72
2019-03-27T05:58:48.643Z,10.82
2019-03-27T06:00:23.524Z,11.22
2019-03-27T06:01:57.832Z,11.95
2019-03-27T06:03:32.142Z,12.57
2019-03-27T06:05:06.785Z,13.15
2019-03-27T06:06:41.495Z,13.69
2019-03-27T06:08:15.715Z,13.79
2019-03-27T06:09:49.953Z,14.08
2019-03-27T06:11:24.212Z,14.35
2019-03-27T06:12:58.752Z,14.78
2019-03-27T06:14:33.043Z,15.05
2019-03-27T06:16:07.439Z,15.14
2019-03-27T06:17:41.725Z,14.85
2019-03-27T06:19:16.278Z,15.08
2019-03-27T06:20:50.489Z,15.16
2019-03-27T06:22:24.721Z,15.15
2019-03-27T06:23:58.964Z,14.79
2019-03-27T06:25:33.417Z,14.68
2019-03-27T06:27:07.676Z,14.67
2019-03-27T06:28:42.004Z,14.66
2019-03-27T06:30:16.586Z,14.28
2019-03-27T06:32:03.129Z,14.30
2019-03-27T06:33:37.475Z,14.39
2019-03-27T06:35:12.219Z,14.73
2019-03-27T06:36:46.514Z,15.09
2019-03-27T06:38:20.921Z,15.39
2019-03-27T06:39:55.158Z,16.08
2019-03-27T06:41:29.463Z,16.52
2019-03-27T06:43:03.772Z,16.77
2019-03-27T06:44:38.162Z,17.33
2019-03-27T06:46:12.489Z,17.72
2019-03-27T06:47:46.805Z,17.92
2019-03-27T06:49:21.079Z,17.70
2019-03-27T06:50:55.571Z,18.03
2019-03-27T06:52:29.867Z,17.99
2019-03-27T06:54:04.107Z,17.93
2019-03-27T06:55:38.370Z,17.79
2019-03-27T06:57:13.048Z,17.35
2019-03-27T06:58:54.505Z,16.28
2019-03-27T07:00:26.134Z,15.33
2019-03-27T07:02:00.506Z,14.81
2019-03-27T07:03:34.797Z,14.31
2019-03-27T07:05:09.500Z,14.09
2019-03-27T07:06:43.895Z,13.74
2019-03-27T07:08:18.201Z,13.43
2019-03-27T07:09:52.760Z,13.08
2019-03-27T07:11:27.040Z,13.00
2019-03-27T07:13:01.329Z,12.94
2019-03-27T07:14:35.662Z,12.77
2019-03-27T07:16:10.421Z,12.52
2019-03-27T07:17:44.649Z,12.53
2019-03-27T07:19:18.935Z,12.44
2019-03-27T07:20:53.157Z,12.29
2019-03-27T07:22:27.670Z,12.33
2019-03-27T07:24:01.953Z,12.23
2019-03-27T07:25:36.367Z,12.22
2019-03-27T07:27:10.613Z,12.26
2019-03-27T07:28:45.098Z,12.29
2019-03-27T07:30:19.414Z,12.21
2019-03-27T07:31:53.654Z,12.18
2019-03-27T07:33:27.874Z,12.15
2019-03-27T07:35:02.335Z,12.13
2019-03-27T07:36:36.689Z,12.22
2019-03-27T07:38:10.968Z,12.15
2019-03-27T07:39:45.197Z,12.19
2019-03-27T07:41:19.859Z,12.32
2019-03-27T07:42:54.181Z,12.50
2019-03-27T07:44:28.405Z,12.74
2019-03-27T07:46:02.779Z,12.89
2019-03-27T07:47:37.093Z,12.84
2019-03-27T07:49:11.402Z,12.98
2019-03-27T07:50:45.637Z,13.08
2019-03-27T07:52:19.970Z,13.31
2019-03-27T07:53:54.396Z,14.08
2019-03-27T07:55:28.669Z,14.86
2019-03-27T07:57:04.922Z,15.00
2019-03-27T07:58:39.254Z,15.13
2019-03-27T08:00:16.958Z,15.65
2019-03-27T08:01:51.244Z,16.34
2019-03-27T08:03:25.545Z,16.96
2019-03-27T08:04:59.789Z,17.48
2019-03-27T08:06:34.412Z,17.10
2019-03-27T08:08:08.691Z,17.11
2019-03-27T08:09:42.953Z,17.25
2019-03-27T08:11:17.260Z,17.22
2019-03-27T08:12:51.800Z,17.63
2019-03-27T08:14:27.310Z,17.86
2019-03-27T08:16:01.631Z,17.93
2019-03-27T08:17:36.577Z,17.79
2019-03-27T08:19:10.942Z,17.96
2019-03-27T08:20:45.212Z,17.60
2019-03-27T08:22:19.528Z,17.57
2019-03-27T08:23:53.858Z,17.24
2019-03-27T08:25:28.289Z,17.00
2019-03-27T08:27:02.651Z,16.98
2019-03-27T08:28:36.883Z,17.27
2019-03-27T08:30:15.391Z,17.30
2019-03-27T08:31:49.939Z,17.04
2019-03-27T08:33:24.279Z,16.91
2019-03-27T08:34:58.618Z,16.84
2019-03-27T08:36:32.841Z,16.55
2019-03-27T08:38:07.581Z,16.83
2019-03-27T08:39:41.794Z,17.16
2019-03-27T08:41:16.128Z,17.50
2019-03-27T08:42:50.479Z,17.58
2019-03-27T08:44:25.008Z,17.38
2019-03-27T08:45:59.250Z,17.55
2019-03-27T08:47:33.555Z,17.46
2019-03-27T08:49:20.771Z,17.11
2019-03-27T08:50:43.886Z,17.39
2019-03-27T08:52:18.201Z,17.40
2019-03-27T08:53:53.213Z,17.49
2019-03-27T08:55:27.506Z,17.24
2019-03-27T08:57:02.112Z,17.39
2019-03-27T08:58:36.342Z,17.31
2019-03-27T09:00:12.941Z,17.26
2019-03-27T09:01:47.313Z,17.39
2019-03-27T09:03:22.244Z,17.82
2019-03-27T09:04:56.469Z,18.52
2019-03-27T09:06:33.886Z,18.88
2019-03-27T09:08:06.716Z,18.74
2019-03-27T09:09:41.058Z,18.49
2019-03-27T09:11:15.363Z,18.95
2019-03-27T09:12:49.609Z,19.50
2019-03-27T09:14:23.855Z,19.46
2019-03-27T09:16:00.503Z,19.50
2019-03-27T09:17:34.802Z,19.67
2019-03-27T09:19:09.074Z,19.96
2019-03-27T09:20:43.339Z,20.01
2019-03-27T09:22:17.751Z,20.10
2019-03-27T09:23:52.054Z,20.25
2019-03-27T09:25:26.359Z,20.10
2019-03-27T09:27:00.714Z,20.29
2019-03-27T09:28:35.174Z,19.88
2019-03-27T09:30:11.804Z,20.09
2019-03-27T09:31:46.045Z,19.73
2019-03-27T09:33:20.379Z,19.69
2019-03-27T09:34:54.889Z,19.39
2019-03-27T09:36:29.171Z,19.35
2019-03-27T09:38:03.557Z,19.36
2019-03-27T09:39:37.826Z,19.14
2019-03-27T09:41:12.279Z,18.83
2019-03-27T09:42:46.519Z,19.15
2019-03-27T09:44:20.820Z,19.73
2019-03-27T09:45:55.107Z,19.67
2019-03-27T09:47:29.563Z,19.61
2019-03-27T09:49:03.799Z,19.75
2019-03-27T09:50:38.082Z,20.07
2019-03-27T09:52:12.396Z,20.28
2019-03-27T09:53:46.918Z,19.24
2019-03-27T09:55:21.186Z,18.76
2019-03-27T09:56:55.404Z,18.81
2019-03-27T09:58:29.630Z,18.51
2019-03-27T10:00:08.623Z,18.63
2019-03-27T10:01:42.887Z,19.15
2019-03-27T10:03:17.184Z,19.84
2019-03-27T10:04:51.458Z,20.29
2019-03-27T10:06:25.914Z,20.05
2019-03-27T10:08:00.217Z,19.65
2019-03-27T10:09:35.294Z,18.92
2019-03-27T10:11:09.541Z,18.56
2019-03-27T10:12:44.014Z,18.35
2019-03-27T10:14:30.063Z,17.97
2019-03-27T10:16:05.325Z,17.93
2019-03-27T10:17:40.763Z,17.88
2019-03-27T10:19:15.142Z,17.98
2019-03-27T10:20:49.386Z,17.84
2019-03-27T10:22:23.680Z,17.87
2019-03-27T10:23:57.962Z,17.51
2019-03-27T10:25:32.476Z,17.30
2019-03-27T10:27:06.770Z,17.02
2019-03-27T10:28:41.062Z,17.07
2019-03-27T10:30:15.574Z,17.22
2019-03-27T10:31:50.058Z,17.01
2019-03-27T10:33:24.348Z,16.47
2019-03-27T10:34:58.646Z,16.25
2019-03-27T10:36:33.616Z,16.11
2019-03-27T10:38:08.165Z,16.37
2019-03-27T10:39:42.363Z,16.41
2019-03-27T10:41:16.564Z,16.42
2019-03-27T10:42:50.803Z,16.27
2019-03-27T10:44:25.540Z,16.22
2019-03-27T10:45:59.751Z,16.28
2019-03-27T10:47:34.551Z,16.48
2019-03-27T10:49:08.845Z,16.62
2019-03-27T10:50:43.396Z,16.34
2019-03-27T10:52:17.614Z,16.29
2019-03-27T10:53:51.834Z,16.36
2019-03-27T10:55:26.095Z,16.36
2019-03-27T10:57:00.753Z,16.40
2019-03-27T10:58:35.809Z,16.14
2019-03-27T11:00:12.524Z,16.08
2019-03-27T11:01:46.745Z,16.08
2019-03-27T11:03:21.375Z,16.12
2019-03-27T11:04:55.711Z,16.38
2019-03-27T11:06:30.023Z,16.67
2019-03-27T11:08:04.310Z,16.87
2019-03-27T11:09:39.014Z,16.72
2019-03-27T11:11:13.298Z,16.68
2019-03-27T11:12:47.655Z,16.62
2019-03-27T11:14:21.949Z,16.47
2019-03-27T11:15:56.405Z,16.52
2019-03-27T11:17:30.725Z,16.62
2019-03-27T11:19:05.042Z,16.79
2019-03-27T11:20:39.849Z,16.76
2019-03-27T11:22:14.330Z,16.77
2019-03-27T11:23:48.539Z,16.85
2019-03-27T11:25:22.843Z,16.77
2019-03-27T11:26:57.145Z,16.78
2019-03-27T11:28:31.768Z,16.64
2019-03-27T11:30:07.781Z,16.63
2019-03-27T11:31:42.145Z,16.61
2019-03-27T11:33:16.353Z,16.62
2019-03-27T11:34:51.075Z,16.55
2019-03-27T11:36:25.374Z,16.54
2019-03-27T11:37:59.711Z,16.59
2019-03-27T11:39:34.078Z,16.70
2019-03-27T11:41:08.510Z,16.72
2019-03-27T11:42:42.802Z,16.76
2019-03-27T11:44:17.157Z,16.77
2019-03-27T11:45:51.481Z,16.67
2019-03-27T11:47:26.165Z,16.71
2019-03-27T11:49:00.540Z,16.80
2019-03-27T11:50:44.813Z,16.81
2019-03-27T11:52:10.779Z,16.59
2019-03-27T11:53:45.206Z,16.45
2019-03-27T11:55:19.870Z,16.41
2019-03-27T11:56:55.415Z,16.36
2019-03-27T11:58:29.705Z,16.21
2019-03-27T12:00:05.984Z,16.19
2019-03-27T12:01:43.611Z,16.14
2019-03-27T12:03:16.244Z,16.08
2019-03-27T12:04:50.525Z,16.18
2019-03-27T12:06:25.296Z,16.16
2019-03-27T12:07:59.584Z,16.08
2019-03-27T12:09:33.878Z,16.11
2019-03-27T12:11:08.235Z,16.07
2019-03-27T12:12:42.732Z,16.04
2019-03-27T12:14:17.028Z,15.97
2019-03-27T12:15:51.320Z,16.00
2019-03-27T12:17:25.634Z,15.88
2019-03-27T12:19:00.570Z,15.72
2019-03-27T12:20:35.138Z,15.69
2019-03-27T12:22:09.508Z,15.74
2019-03-27T12:23:43.778Z,15.75
2019-03-27T12:25:18.107Z,15.82
2019-03-27T12:26:52.381Z,16.02
2019-03-27T12:28:26.622Z,16.13
2019-03-27T12:30:02.065Z,16.20
2019-03-27T12:31:36.533Z,16.08
2019-03-27T12:33:10.835Z,15.93
2019-03-27T12:34:45.097Z,15.98
2019-03-27T12:36:20.091Z,16.07
2019-03-27T12:37:56.380Z,16.07
2019-03-27T12:39:30.693Z,16.12
2019-03-27T12:41:04.940Z,16.17
2019-03-27T12:42:39.339Z,16.11
2019-03-27T12:44:13.860Z,16.06
2019-03-27T12:45:49.496Z,16.04
2019-03-27T12:47:23.795Z,15.97
2019-03-27T12:48:59.539Z,16.02
2019-03-27T12:50:33.971Z,16.07
2019-03-27T12:52:08.294Z,15.98
2019-03-27T12:53:42.514Z,15.91
2019-03-27T12:55:16.865Z,15.90
2019-03-27T12:56:51.885Z,15.96
2019-03-27T12:58:26.110Z,16.00
2019-03-27T13:00:00.433Z,15.90
2019-03-27T13:01:34.742Z,15.72
2019-03-27T13:03:09.433Z,15.74
2019-03-27T13:04:43.729Z,15.84
2019-03-27T13:06:17.939Z,15.90
2019-03-27T13:07:52.733Z,15.91
2019-03-27T13:09:27.245Z,16.06
2019-03-27T13:11:01.571Z,16.06
2019-03-27T13:12:35.811Z,16.10
2019-03-27T13:14:10.123Z,16.05
2019-03-27T13:15:44.787Z,15.94
2019-03-27T13:17:19.010Z,15.81
2019-03-27T13:18:53.321Z,15.79
2019-03-27T13:20:27.539Z,15.88
2019-03-27T13:22:02.131Z,16.00
2019-03-27T13:23:36.342Z,16.01
2019-03-27T13:25:10.750Z,15.99
2019-03-27T13:26:45.043Z,16.08
2019-03-27T13:28:19.900Z,16.20
2019-03-27T13:29:54.176Z,16.19
2019-03-27T13:31:28.463Z,16.10
2019-03-27T13:33:02.788Z,16.03
2019-03-27T13:34:37.258Z,16.07
2019-03-27T13:36:11.598Z,16.02
2019-03-27T13:37:45.877Z,15.99
2019-03-27T13:39:25.161Z,16.00
2019-03-27T13:41:01.441Z,16.03
2019-03-27T13:42:37.617Z,15.84
2019-03-27T13:44:11.567Z,15.79
2019-03-27T13:45:45.861Z,15.74
2019-03-27T13:47:20.298Z,15.79
2019-03-27T13:48:54.527Z,15.81
2019-03-27T13:50:29.352Z,15.73
2019-03-27T13:52:08.452Z,15.81
2019-03-27T13:53:43.201Z,15.92
2019-03-27T13:55:17.929Z,15.98
2019-03-27T13:56:52.301Z,15.99
2019-03-27T13:58:26.624Z,16.13
2019-03-27T14:00:01.056Z,16.22
2019-03-27T14:01:35.349Z,16.16
2019-03-27T14:03:09.631Z,16.11
2019-03-27T14:04:43.850Z,16.06
2019-03-27T14:06:18.267Z,15.99
2019-03-27T14:07:52.599Z,16.09
2019-03-27T14:09:26.946Z,16.13
2019-03-27T14:11:01.349Z,16.11
2019-03-27T14:12:36.059Z,15.94
2019-03-27T14:14:11.546Z,15.89
2019-03-27T14:15:46.132Z,15.90
2019-03-27T14:17:20.385Z,15.72
2019-03-27T14:18:54.801Z,15.71
2019-03-27T14:20:29.042Z,15.70
2019-03-27T14:22:03.812Z,15.70
2019-03-27T14:23:38.122Z,15.71
2019-03-27T14:25:13.211Z,15.64
2019-03-27T14:26:47.493Z,15.59
2019-03-27T14:28:21.776Z,15.55
2019-03-27T14:29:56.105Z,15.53
2019-03-27T14:31:30.562Z,15.58
2019-03-27T14:33:04.849Z,15.56
2019-03-27T14:34:39.116Z,15.56
2019-03-27T14:36:13.397Z,15.53
2019-03-27T14:37:49.240Z,15.56
2019-03-27T14:39:23.517Z,15.52
2019-03-27T14:41:04.800Z,15.56
2019-03-27T14:42:39.081Z,15.56
2019-03-27T14:44:13.648Z,15.55
2019-03-27T14:45:47.860Z,15.52
2019-03-27T14:47:22.063Z,15.58
2019-03-27T14:48:56.351Z,15.61
2019-03-27T14:50:31.214Z,15.59
2019-03-27T14:52:08.404Z,15.56
2019-03-27T14:53:41.403Z,15.60
2019-03-27T14:55:15.632Z,15.59
2019-03-27T14:56:49.982Z,15.61
2019-03-27T14:58:24.605Z,15.50
2019-03-27T14:59:58.930Z,15.53
2019-03-27T15:01:35.609Z,15.48
2019-03-27T15:03:09.369Z,15.33
2019-03-27T15:04:43.670Z,15.30
2019-03-27T15:06:18.156Z,15.29
2019-03-27T15:07:52.870Z,15.29
2019-03-27T15:09:27.434Z,15.27
2019-03-27T15:11:01.794Z,15.28
2019-03-27T15:12:36.211Z,15.28
2019-03-27T15:14:10.498Z,15.28
2019-03-27T15:15:47.100Z,15.32
2019-03-27T15:17:21.358Z,15.33
2019-03-27T15:18:55.654Z,15.27
2019-03-27T15:20:29.938Z,15.24
2019-03-27T15:22:04.398Z,15.20
2019-03-27T15:23:38.679Z,15.19
2019-03-27T15:25:15.272Z,15.06
2019-03-27T15:26:49.553Z,15.00
2019-03-27T15:28:26.435Z,14.99
2019-03-27T15:30:00.722Z,15.00
2019-03-27T15:31:34.932Z,14.99
2019-03-27T15:33:09.142Z,14.95
2019-03-27T15:34:43.617Z,14.88
2019-03-27T15:36:17.845Z,14.83
2019-03-27T15:37:52.174Z,14.77
2019-03-27T15:39:26.482Z,14.77
2019-03-27T15:41:02.664Z,14.77
2019-03-27T15:42:37.404Z,14.82
2019-03-27T15:44:11.838Z,14.79
2019-03-27T15:45:46.066Z,14.77
2019-03-27T15:47:20.473Z,14.72
2019-03-27T15:48:54.787Z,14.70
2019-03-27T15:50:29.089Z,14.65
2019-03-27T15:52:03.342Z,14.57
2019-03-27T15:53:37.841Z,14.51
2019-03-27T15:55:12.181Z,14.42
2019-03-27T15:56:46.510Z,14.32
2019-03-27T15:58:20.751Z,14.30
2019-03-27T15:59:55.278Z,14.24
2019-03-27T16:01:29.609Z,14.19
2019-03-27T16:03:03.870Z,14.15
2019-03-27T16:04:38.917Z,14.12
2019-03-27T16:06:13.808Z,14.03
2019-03-27T16:07:48.068Z,13.97
2019-03-27T16:09:22.353Z,13.89
2019-03-27T16:10:56.693Z,13.81
2019-03-27T16:12:31.570Z,13.76
2019-03-27T16:14:06.162Z,13.69
2019-03-27T16:15:40.493Z,13.60
2019-03-27T16:17:14.815Z,13.54
2019-03-27T16:18:51.028Z,13.49
2019-03-27T16:20:25.377Z,13.47
2019-03-27T16:21:59.679Z,13.42
2019-03-27T16:23:35.868Z,13.37
2019-03-27T16:25:11.171Z,13.30
2019-03-27T16:26:53.338Z,13.23
2019-03-27T16:28:21.550Z,13.16
2019-03-27T16:29:55.911Z,13.12
2019-03-27T16:31:30.410Z,13.07
2019-03-27T16:33:04.763Z,12.98
2019-03-27T16:34:39.201Z,12.91
2019-03-27T16:36:13.545Z,12.85
2019-03-27T16:37:47.969Z,12.81
2019-03-27T16:39:22.262Z,12.75
2019-03-27T16:40:56.567Z,12.70
2019-03-27T16:42:30.951Z,12.65
2019-03-27T16:44:05.455Z,12.59
2019-03-27T16:45:40.068Z,12.54
2019-03-27T16:47:14.379Z,12.49
2019-03-27T16:48:48.691Z,12.45
2019-03-27T16:50:25.342Z,12.42
2019-03-27T16:52:08.826Z,12.39
2019-03-27T16:53:38.919Z,12.33
2019-03-27T16:55:13.257Z,12.27
2019-03-27T16:56:47.753Z,12.19
2019-03-27T16:58:22.113Z,12.12
2019-03-27T16:59:56.343Z,12.07
2019-03-27T17:01:30.667Z,12.01
2019-03-27T17:03:05.353Z,11.95
2019-03-27T17:04:39.672Z,11.88
2019-03-27T17:06:14.519Z,11.85
2019-03-27T17:07:48.842Z,11.83
2019-03-27T17:09:23.414Z,11.79
2019-03-27T17:10:57.752Z,11.75
2019-03-27T17:12:33.518Z,11.69
2019-03-27T17:14:07.750Z,11.63
2019-03-27T17:15:42.414Z,11.57
2019-03-27T17:17:16.732Z,11.52
2019-03-27T17:18:52.614Z,11.49
2019-03-27T17:20:26.970Z,11.45
2019-03-27T17:22:01.602Z,11.40
2019-03-27T17:23:35.849Z,11.34
2019-03-27T17:25:11.257Z,11.28
2019-03-27T17:26:45.578Z,11.20
2019-03-27T17:28:20.097Z,11.14
2019-03-27T17:29:54.419Z,11.11
2019-03-27T17:31:30.305Z,11.06
2019-03-27T17:33:04.526Z,11.01
2019-03-27T17:34:38.980Z,10.95
2019-03-27T17:36:14.869Z,10.91
2019-03-27T17:37:49.231Z,10.86
2019-03-27T17:39:23.569Z,10.81
2019-03-27T17:40:58.071Z,10.78
2019-03-27T17:42:32.397Z,10.74
2019-03-27T17:44:06.720Z,10.73
2019-03-27T17:45:41.009Z,10.70
2019-03-27T17:47:15.376Z,10.67
2019-03-27T17:48:49.756Z,10.59
2019-03-27T17:50:24.054Z,10.53
2019-03-27T17:51:58.362Z,10.47
2019-03-27T17:53:32.877Z,10.01
2019-03-27T17:55:09.092Z,10.38
2019-03-27T17:56:43.402Z,10.30
2019-03-27T17:58:17.737Z,10.25
2019-03-27T17:59:52.327Z,10.21
2019-03-27T18:01:26.632Z,10.19
2019-03-27T18:03:01.946Z,10.16
2019-03-27T18:04:36.305Z,10.11
2019-03-27T18:06:11.019Z,10.06
2019-03-27T18:07:45.338Z,9.99
2019-03-27T18:09:19.598Z,9.90
2019-03-27T18:10:53.924Z,9.84
2019-03-27T18:12:28.460Z,9.80
2019-03-27T18:14:02.737Z,9.73
2019-03-27T18:15:37.097Z,9.66
2019-03-27T18:17:11.426Z,9.60
2019-03-27T18:18:45.860Z,9.53
2019-03-27T18:20:20.163Z,9.43
2019-03-27T18:22:07.079Z,9.36
2019-03-27T18:23:30.382Z,9.27
2019-03-27T18:25:05.813Z,9.20
2019-03-27T18:26:40.141Z,9.13
2019-03-27T18:28:15.033Z,9.07
2019-03-27T18:29:49.382Z,9.01
2019-03-27T18:31:23.826Z,8.92
2019-03-27T18:32:59.199Z,8.81
2019-03-27T18:34:33.504Z,8.74
2019-03-27T18:36:07.859Z,8.67
2019-03-27T18:37:42.321Z,8.61
2019-03-27T18:39:16.576Z,8.54
2019-03-27T18:40:51.003Z,8.48
2019-03-27T18:42:25.299Z,8.43
2019-03-27T18:44:02.978Z,8.38
2019-03-27T18:45:35.830Z,8.34
2019-03-27T18:47:10.514Z,8.28
2019-03-27T18:48:45.978Z,8.21
2019-03-27T18:50:20.387Z,8.15
2019-03-27T18:51:54.731Z,8.09
2019-03-27T18:53:29.052Z,8.01
2019-03-27T18:55:03.903Z,7.93
2019-03-27T18:56:43.572Z,7.87
2019-03-27T18:58:17.910Z,7.78
2019-03-27T18:59:55.759Z,7.71
2019-03-27T19:01:30.128Z,7.62
2019-03-27T19:03:04.779Z,7.51
2019-03-27T19:04:39.113Z,7.40
2019-03-27T19:06:13.737Z,7.34
2019-03-27T19:07:48.026Z,7.25
2019-03-27T19:09:22.579Z,7.18
2019-03-27T19:10:56.903Z,7.11
2019-03-27T19:12:31.248Z,7.07
2019-03-27T19:14:05.494Z,7.00
2019-03-27T19:15:39.948Z,6.97
2019-03-27T19:17:14.236Z,6.93
2019-03-27T19:18:48.690Z,6.86
2019-03-27T19:20:23.795Z,6.77
2019-03-27T19:21:58.320Z,6.69
2019-03-27T19:23:32.671Z,6.57
2019-03-27T19:25:08.571Z,6.46
2019-03-27T19:26:42.915Z,6.41
2019-03-27T19:28:17.388Z,6.37
2019-03-27T19:29:51.682Z,6.35
2019-03-27T19:31:28.926Z,6.27
2019-03-27T19:33:03.189Z,6.14
2019-03-27T19:34:37.835Z,6.03
2019-03-27T19:36:12.094Z,5.95
2019-03-27T19:37:46.400Z,5.83
2019-03-27T19:39:20.612Z,5.72
2019-03-27T19:40:55.176Z,5.69
2019-03-27T19:42:29.481Z,5.68
2019-03-27T19:44:03.206Z,5.69
2019-03-27T19:45:36.946Z,5.66
2019-03-27T19:47:11.345Z,5.57
2019-03-27T19:48:45.681Z,5.51
2019-03-27T19:50:20.006Z,5.46
2019-03-27T19:51:54.288Z,5.43
2019-03-27T19:53:28.831Z,5.40
2019-03-27T19:55:03.078Z,5.35
2019-03-27T19:56:36.781Z,5.29
2019-03-27T19:58:11.019Z,5.22
2019-03-27T19:59:45.812Z,5.18
2019-03-27T20:01:20.135Z,5.17
2019-03-27T20:02:54.382Z,5.19
2019-03-27T20:04:28.770Z,5.22
2019-03-27T20:06:03.250Z,5.22
2019-03-27T20:07:37.570Z,5.20
2019-03-27T20:09:11.853Z,5.18
2019-03-27T20:10:46.212Z,5.16
2019-03-27T20:12:20.975Z,5.13
2019-03-27T20:13:55.208Z,5.09
2019-03-27T20:15:29.460Z,5.06
2019-03-27T20:17:03.753Z,5.05
2019-03-27T20:18:39.158Z,5.04
2019-03-27T20:20:14.259Z,5.01
2019-03-27T20:21:48.584Z,5.00
2019-03-27T20:23:22.895Z,5.00
2019-03-27T20:24:57.394Z,5.01
2019-03-27T20:26:31.728Z,4.98
2019-03-27T20:28:06.077Z,4.95
2019-03-27T20:29:40.321Z,4.96
2019-03-27T20:31:14.959Z,4.94
2019-03-27T20:32:49.326Z,4.89
2019-03-27T20:34:23.645Z,4.84